createdAt,value
2022-12-15T00:00:32.191Z,91.85
2022-12-15T00:03:23.969Z,91.92
2022-12-15T00:06:09.635Z,91.02
2022-12-15T00:08:55.748Z,91.56
2022-12-15T00:11:42.861Z,91.72
2022-12-15T00:14:29.389Z,90.94
2022-12-15T00:17:14.924Z,91.97
2022-12-15T00:20:03.295Z,91.61
2022-12-15T00:22:49.106Z,92.18
2022-12-15T00:25:34.735Z,92.42
2022-12-15T00:28:21.899Z,92.93
2022-12-15T00:31:07.475Z,93.01
2022-12-15T00:33:53.226Z,92.10
2022-12-15T00:36:38.668Z,92.67
2022-12-15T00:39:07.253Z,92.00
2022-12-15T00:41:35.456Z,92.28
2022-12-15T00:44:05.350Z,92.69
2022-12-15T00:47:05.593Z,92.35
2022-12-15T00:49:51.213Z,92.15
2022-12-15T00:52:37.400Z,91.72
2022-12-15T00:55:23.499Z,91.18
2022-12-15T00:58:09.344Z,91.70
2022-12-15T01:00:56.101Z,91.97
2022-12-15T01:03:43.042Z,92.40
2022-12-15T01:06:31.793Z,91.61
2022-12-15T01:09:17.305Z,92.60
2022-12-15T01:12:06.154Z,92.47
2022-12-15T01:14:52.289Z,91.36
2022-12-15T01:17:40.965Z,91.72
2022-12-15T01:20:18.378Z,91.39
2022-12-15T01:22:47.429Z,91.77
2022-12-15T01:25:16.806Z,91.75
2022-12-15T01:27:45.616Z,91.74
2022-12-15T01:30:15.716Z,92.24
2022-12-15T01:32:46.394Z,91.21
2022-12-15T01:35:14.927Z,91.73
2022-12-15T01:37:49.944Z,92.38
2022-12-15T01:40:37.470Z,92.65
2022-12-15T01:43:08.213Z,91.70
2022-12-15T01:45:53.393Z,91.92
2022-12-15T01:48:28.564Z,91.97
2022-12-15T01:51:03.508Z,92.72
2022-12-15T01:53:34.930Z,91.89
2022-12-15T01:56:05.610Z,91.80
2022-12-15T01:58:34.216Z,91.79
2022-12-15T02:01:03.388Z,91.58
2022-12-15T02:03:33.710Z,92.62
2022-12-15T02:06:02.569Z,92.07
2022-12-15T02:08:34.765Z,92.83
2022-12-15T02:11:26.668Z,91.92
2022-12-15T02:14:02.120Z,92.92
2022-12-15T02:16:40.119Z,92.42
2022-12-15T02:19:31.545Z,92.46
2022-12-15T02:22:09.191Z,91.64
2022-12-15T02:24:52.643Z,92.69
2022-12-15T02:27:52.134Z,92.07
2022-12-15T02:30:27.649Z,91.25
2022-12-15T02:33:04.480Z,91.80
2022-12-15T02:35:41.716Z,92.28
2022-12-15T02:38:10.154Z,91.71
2022-12-15T02:40:38.725Z,91.66
2022-12-15T02:43:08.179Z,91.59
2022-12-15T02:45:45.509Z,91.57
2022-12-15T02:48:23.852Z,91.94
2022-12-15T02:51:13.249Z,91.54
2022-12-15T02:54:02.696Z,91.64
2022-12-15T02:56:38.688Z,91.70
2022-12-15T02:59:13.206Z,92.73
2022-12-15T03:01:46.006Z,92.17
2022-12-15T03:04:14.888Z,92.56
2022-12-15T03:06:43.298Z,92.47
2022-12-15T03:09:11.538Z,92.43
2022-12-15T03:11:39.978Z,93.63
2022-12-15T03:14:08.208Z,93.82
2022-12-15T03:16:36.844Z,94.06
2022-12-15T03:19:06.610Z,94.38
2022-12-15T03:21:34.785Z,93.71
2022-12-15T03:24:03.018Z,93.62
2022-12-15T03:26:31.323Z,92.84
2022-12-15T03:29:00.508Z,92.91
2022-12-15T03:31:28.809Z,93.27
2022-12-15T03:34:00.245Z,93.97
2022-12-15T03:36:29.788Z,93.79
2022-12-15T03:38:58.059Z,93.28
2022-12-15T03:41:26.435Z,93.01
2022-12-15T03:43:54.669Z,93.39
2022-12-15T03:46:22.931Z,93.52
2022-12-15T03:48:51.949Z,94.03
2022-12-15T03:51:20.200Z,94.28
2022-12-15T03:53:49.788Z,93.50
2022-12-15T03:56:18.639Z,93.52
2022-12-15T03:58:47.109Z,94.21
2022-12-15T04:01:24.341Z,93.35
2022-12-15T04:03:58.546Z,93.42
2022-12-15T04:06:29.269Z,93.76
2022-12-15T04:08:59.962Z,92.96
2022-12-15T04:11:28.248Z,93.38
2022-12-15T04:13:56.508Z,93.76
2022-12-15T04:16:24.865Z,93.22
2022-12-15T04:19:13.796Z,93.07
2022-12-15T04:21:40.989Z,92.85
2022-12-15T04:24:28.250Z,92.96
2022-12-15T04:27:13.814Z,93.03
2022-12-15T04:29:58.976Z,93.15
2022-12-15T04:32:44.440Z,93.44
2022-12-15T04:35:35.780Z,93.07
2022-12-15T04:38:21.325Z,92.90
2022-12-15T04:41:08.608Z,92.68
2022-12-15T04:43:54.250Z,93.19
2022-12-15T04:46:39.868Z,92.70
2022-12-15T04:49:26.094Z,92.26
2022-12-15T04:52:11.588Z,92.72
2022-12-15T04:54:59.708Z,92.06
2022-12-15T04:57:49.443Z,92.80
2022-12-15T05:00:35.671Z,92.87
2022-12-15T05:03:23.398Z,92.73
2022-12-15T05:06:08.869Z,92.22
2022-12-15T05:08:54.610Z,92.72
2022-12-15T05:11:40.212Z,93.18
2022-12-15T05:14:27.594Z,92.83
2022-12-15T05:17:13.800Z,92.48
2022-12-15T05:19:59.578Z,92.72
2022-12-15T05:22:45.295Z,92.29
2022-12-15T05:25:30.992Z,92.59
2022-12-15T05:28:16.493Z,93.34
2022-12-15T05:31:03.849Z,93.22
2022-12-15T05:33:32.383Z,92.94
2022-12-15T05:36:00.768Z,92.72
2022-12-15T05:38:29.036Z,94.33
2022-12-15T05:40:59.417Z,92.93
2022-12-15T05:43:27.829Z,93.59
2022-12-15T05:45:57.889Z,93.49
2022-12-15T05:48:26.801Z,94.41
2022-12-15T05:50:55.250Z,93.55
2022-12-15T05:53:23.557Z,92.72
2022-12-15T05:55:51.801Z,92.33
2022-12-15T05:58:20.020Z,91.93
2022-12-15T06:00:48.368Z,93.11
2022-12-15T06:03:18.098Z,93.67
2022-12-15T06:05:48.362Z,94.54
2022-12-15T06:08:18.655Z,91.88
2022-12-15T06:10:53.889Z,93.37
2022-12-15T06:13:22.332Z,93.05
2022-12-15T06:15:58.234Z,93.44
2022-12-15T06:18:30.608Z,92.91
2022-12-15T06:21:00.738Z,92.92
2022-12-15T06:23:30.116Z,93.20
2022-12-15T06:25:58.699Z,92.98
2022-12-15T06:28:26.925Z,93.25
2022-12-15T06:30:56.385Z,93.27
2022-12-15T06:33:25.265Z,93.29
2022-12-15T06:35:54.810Z,92.97
2022-12-15T06:38:23.257Z,92.91
2022-12-15T06:40:56.536Z,92.42
2022-12-15T06:43:24.764Z,93.03
2022-12-15T06:45:53.059Z,93.25
2022-12-15T06:48:25.318Z,93.10
2022-12-15T06:50:55.306Z,93.96
2022-12-15T06:53:25.585Z,93.42
2022-12-15T06:55:53.861Z,92.86
2022-12-15T06:58:22.041Z,93.53
2022-12-15T07:00:50.392Z,93.30
2022-12-15T07:03:20.201Z,92.82
2022-12-15T07:05:48.554Z,92.79
2022-12-15T07:08:18.293Z,92.44
2022-12-15T07:10:46.519Z,92.25
2022-12-15T07:13:14.953Z,91.78
2022-12-15T07:15:44.718Z,91.97
2022-12-15T07:18:12.992Z,92.58
2022-12-15T07:20:41.160Z,92.57
2022-12-15T07:23:10.048Z,92.99
2022-12-15T07:25:41.314Z,93.44
2022-12-15T07:28:09.940Z,93.14
2022-12-15T07:30:39.092Z,91.83
2022-12-15T07:33:07.609Z,92.44
2022-12-15T07:35:35.894Z,92.37
2022-12-15T07:38:08.288Z,91.84
2022-12-15T07:40:36.664Z,92.16
2022-12-15T07:43:06.180Z,92.75
2022-12-15T07:45:34.434Z,92.92
2022-12-15T07:48:02.778Z,92.97
2022-12-15T07:50:32.301Z,92.65
2022-12-15T07:53:00.588Z,93.04
2022-12-15T07:55:57.199Z,93.31
2022-12-15T07:58:19.049Z,92.58
2022-12-15T08:00:49.587Z,92.03
2022-12-15T08:03:18.024Z,93.13
2022-12-15T08:05:46.533Z,92.06
2022-12-15T08:08:15.590Z,92.00
2022-12-15T08:10:43.954Z,90.64
2022-12-15T08:13:21.704Z,90.83
2022-12-15T08:16:02.100Z,91.12
2022-12-15T08:18:30.358Z,90.03
2022-12-15T08:21:03.770Z,90.24
2022-12-15T08:23:32.538Z,89.98
2022-12-15T08:26:04.875Z,89.63
2022-12-15T08:28:33.927Z,88.73
2022-12-15T08:31:06.244Z,88.66
2022-12-15T08:33:35.050Z,89.88
2022-12-15T08:36:04.309Z,89.91
2022-12-15T08:38:32.976Z,89.36
2022-12-15T08:41:08.437Z,88.91
2022-12-15T08:43:37.561Z,88.83
2022-12-15T08:46:09.946Z,89.06
2022-12-15T08:48:38.317Z,89.99
2022-12-15T08:51:08.068Z,90.66
2022-12-15T08:53:36.321Z,89.66
2022-12-15T08:56:06.037Z,89.22
2022-12-15T08:58:35.348Z,89.93
2022-12-15T09:01:03.992Z,89.40
2022-12-15T09:03:34.555Z,89.71
2022-12-15T09:06:03.989Z,89.41
2022-12-15T09:08:32.422Z,88.36
2022-12-15T09:11:01.310Z,88.04
2022-12-15T09:13:30.303Z,87.32
2022-12-15T09:16:14.247Z,87.35
2022-12-15T09:18:45.285Z,87.76
2022-12-15T09:21:14.215Z,86.81
2022-12-15T09:23:42.861Z,86.84
2022-12-15T09:26:12.608Z,86.09
2022-12-15T09:28:42.892Z,86.61
2022-12-15T09:31:12.962Z,86.55
2022-12-15T09:33:42.887Z,87.43
2022-12-15T09:36:13.973Z,87.41
2022-12-15T09:38:43.724Z,87.62
2022-12-15T09:41:21.894Z,87.38
2022-12-15T09:43:54.953Z,87.93
2022-12-15T09:46:26.593Z,88.17
2022-12-15T09:48:55.337Z,88.24
2022-12-15T09:51:31.661Z,88.67
2022-12-15T09:54:00.523Z,89.19
2022-12-15T09:56:37.944Z,89.94
2022-12-15T09:59:15.673Z,89.52
2022-12-15T10:01:51.937Z,90.02
2022-12-15T10:04:30.749Z,90.28
2022-12-15T10:07:03.828Z,90.01
2022-12-15T10:09:32.141Z,90.01
2022-12-15T10:12:01.982Z,90.26
2022-12-15T10:14:33.209Z,89.69
2022-12-15T10:17:07.630Z,89.73
2022-12-15T10:19:41.470Z,89.44
2022-12-15T10:22:15.699Z,88.82
2022-12-15T10:27:53.519Z,89.47
2022-12-15T10:30:24.174Z,90.32
2022-12-15T10:32:55.942Z,90.36
2022-12-15T10:35:27.851Z,90.12
2022-12-15T10:38:00.150Z,90.55
2022-12-15T10:40:44.653Z,90.89
2022-12-15T10:43:27.276Z,90.62
2022-12-15T10:46:03.727Z,91.35
2022-12-15T10:48:32.100Z,92.05
2022-12-15T10:51:15.677Z,90.66
2022-12-15T10:53:50.310Z,90.79
2022-12-15T10:56:32.419Z,90.99
2022-12-15T10:59:02.920Z,90.69
2022-12-15T11:01:34.315Z,91.40
2022-12-15T11:04:02.974Z,90.86
2022-12-15T11:06:33.893Z,91.11
2022-12-15T11:09:22.353Z,90.93
2022-12-15T11:12:12.109Z,92.52
2022-12-15T11:14:46.440Z,91.74
2022-12-15T11:17:18.227Z,91.28
2022-12-15T11:22:45.106Z,93.00
2022-12-15T11:25:22.316Z,92.53
2022-12-15T11:27:51.921Z,92.39
2022-12-15T11:30:22.438Z,92.04
2022-12-15T11:32:54.337Z,91.47
2022-12-15T11:35:27.981Z,93.51
2022-12-15T11:38:01.246Z,94.14
2022-12-15T11:40:37.493Z,93.12
2022-12-15T11:43:33.512Z,93.48
2022-12-15T11:46:22.406Z,92.30
2022-12-15T11:49:16.761Z,93.60
2022-12-15T11:51:47.481Z,92.91
2022-12-15T11:54:21.547Z,93.98
2022-12-15T11:56:54.973Z,93.35
2022-12-15T11:59:38.296Z,93.62
2022-12-15T12:02:22.150Z,93.86
2022-12-15T12:05:03.162Z,93.37
2022-12-15T12:10:32.740Z,93.64
2022-12-15T12:13:11.335Z,93.77
2022-12-15T12:15:46.558Z,93.96
2022-12-15T12:18:22.001Z,93.19
2022-12-15T12:20:53.434Z,93.35
2022-12-15T12:23:28.143Z,93.56
2022-12-15T12:26:03.371Z,93.63
2022-12-15T12:28:54.723Z,94.10
2022-12-15T12:31:29.053Z,94.43
2022-12-15T12:34:01.658Z,94.11
2022-12-15T12:36:30.945Z,93.92
2022-12-15T12:38:59.752Z,94.29
2022-12-15T12:41:35.837Z,93.95
2022-12-15T12:44:10.260Z,94.65
2022-12-15T12:46:42.510Z,94.01
2022-12-15T12:49:15.196Z,93.96
2022-12-15T12:51:43.979Z,93.48
2022-12-15T12:54:42.407Z,94.32
2022-12-15T12:57:34.831Z,93.13
2022-12-15T13:00:13.349Z,93.00
2022-12-15T13:03:03.177Z,93.62
2022-12-15T13:05:33.190Z,93.41
2022-12-15T13:08:27.944Z,93.41
2022-12-15T13:10:56.770Z,94.07
2022-12-15T13:13:48.496Z,93.62
2022-12-15T13:16:25.291Z,93.86
2022-12-15T13:19:03.421Z,93.67
2022-12-15T13:21:56.884Z,93.88
2022-12-15T13:24:32.637Z,93.40
2022-12-15T13:27:15.446Z,93.42
2022-12-15T13:30:00.309Z,93.23
2022-12-15T13:32:35.891Z,92.81
2022-12-15T13:35:23.585Z,92.62
2022-12-15T13:37:53.674Z,92.76
2022-12-15T13:40:34.747Z,92.85
2022-12-15T13:43:11.515Z,92.86
2022-12-15T13:45:50.370Z,92.85
2022-12-15T13:48:42.072Z,92.74
2022-12-15T13:51:33.811Z,92.57
2022-12-15T13:54:05.577Z,93.04
2022-12-15T13:56:49.015Z,92.68
2022-12-15T13:59:26.634Z,92.20
2022-12-15T14:01:55.515Z,92.24
2022-12-15T14:04:25.245Z,92.60
2022-12-15T14:06:55.752Z,92.66
2022-12-15T14:09:29.441Z,92.04
2022-12-15T14:11:59.154Z,91.91
2022-12-15T14:14:30.637Z,91.94
2022-12-15T14:17:01.838Z,92.16
2022-12-15T14:19:40.245Z,91.77
2022-12-15T14:22:27.450Z,91.70
2022-12-15T14:25:01.976Z,91.99
2022-12-15T14:27:34.447Z,91.77
2022-12-15T14:30:13.671Z,91.54
2022-12-15T14:32:42.368Z,92.03
2022-12-15T14:35:15.679Z,91.73
2022-12-15T14:37:43.957Z,91.72
2022-12-15T14:40:15.896Z,91.39
2022-12-15T14:42:45.526Z,91.55
2022-12-15T14:45:20.857Z,92.36
2022-12-15T14:48:13.695Z,92.47
2022-12-15T14:50:47.537Z,91.68
2022-12-15T14:53:18.009Z,92.00
2022-12-15T14:55:46.472Z,91.02
2022-12-15T14:58:31.049Z,91.40
2022-12-15T15:01:00.472Z,91.46
2022-12-15T15:03:06.549Z,89.48
2022-12-15T15:03:06.890Z,92.22
2022-12-15T15:03:12.649Z,93.38
2022-12-15T15:03:36.988Z,91.24
2022-12-15T15:06:18.066Z,91.51
2022-12-15T15:08:48.775Z,91.07
2022-12-15T15:11:25.672Z,90.69
2022-12-15T15:13:56.451Z,91.16
2022-12-15T15:16:25.142Z,91.31
2022-12-15T15:18:55.031Z,91.31
2022-12-15T15:21:26.999Z,91.80
2022-12-15T15:24:02.874Z,91.47
2022-12-15T15:26:32.383Z,91.81
2022-12-15T15:29:00.623Z,91.47
2022-12-15T15:31:40.461Z,91.68
2022-12-15T15:34:09.974Z,92.01
2022-12-15T15:36:40.564Z,92.09
2022-12-15T15:39:15.190Z,92.47
2022-12-15T15:41:43.607Z,92.86
2022-12-15T15:44:15.472Z,92.67
2022-12-15T15:46:47.807Z,92.89
2022-12-15T15:49:18.719Z,93.08
2022-12-15T15:51:48.651Z,93.18
2022-12-15T15:54:18.961Z,93.31
2022-12-15T15:56:47.286Z,92.90
2022-12-15T15:59:17.133Z,93.26
2022-12-15T16:01:46.741Z,92.76
2022-12-15T16:04:15.253Z,92.91
2022-12-15T16:06:47.315Z,92.70
2022-12-15T16:09:18.057Z,92.41
2022-12-15T16:11:46.954Z,93.02
2022-12-15T16:14:18.035Z,93.00
2022-12-15T16:16:46.538Z,92.97
2022-12-15T16:19:14.765Z,93.45
2022-12-15T16:21:44.328Z,93.35
2022-12-15T16:24:16.654Z,92.94
2022-12-15T16:26:48.393Z,93.48
2022-12-15T16:29:18.726Z,93.56
2022-12-15T16:31:47.290Z,93.78
2022-12-15T16:34:16.686Z,93.39
2022-12-15T16:36:45.361Z,93.92
2022-12-15T16:39:25.633Z,93.73
2022-12-15T16:41:55.378Z,94.03
2022-12-15T16:44:25.130Z,93.84
2022-12-15T16:46:53.575Z,94.30
2022-12-15T16:49:21.974Z,94.85
2022-12-15T16:51:52.608Z,95.18
2022-12-15T16:54:24.321Z,95.21
2022-12-15T16:56:53.375Z,95.75
2022-12-15T16:59:34.954Z,95.84
2022-12-15T17:02:08.644Z,96.36
2022-12-15T17:04:37.189Z,95.95
2022-12-15T17:07:06.989Z,96.83
2022-12-15T17:09:38.334Z,96.67
2022-12-15T17:12:06.893Z,97.58
2022-12-15T17:14:35.850Z,98.12
2022-12-15T17:17:04.265Z,98.85
2022-12-15T17:19:32.486Z,99.98
2022-12-15T17:22:00.851Z,99.79
2022-12-15T17:24:29.265Z,99.76
2022-12-15T17:26:59.665Z,99.64
2022-12-15T17:29:27.989Z,99.72
2022-12-15T17:31:56.315Z,100.00
2022-12-15T17:34:28.531Z,100.00
2022-12-15T17:36:58.044Z,100.00
2022-12-15T17:39:26.806Z,100.00
2022-12-15T17:42:00.487Z,100.00
2022-12-15T17:44:35.439Z,100.00
2022-12-15T17:47:06.791Z,100.00
2022-12-15T17:49:38.407Z,100.00
2022-12-15T17:52:14.421Z,100.00
2022-12-15T17:54:42.755Z,100.00
2022-12-15T17:57:12.883Z,100.00
2022-12-15T17:59:42.538Z,100.00
2022-12-15T18:02:13.311Z,100.00
2022-12-15T18:04:41.923Z,100.00
2022-12-15T18:07:15.824Z,100.00
2022-12-15T18:09:44.117Z,100.00
2022-12-15T18:12:19.443Z,100.00
2022-12-15T18:14:49.273Z,100.00
2022-12-15T18:17:18.566Z,100.00
2022-12-15T18:19:47.151Z,100.00
2022-12-15T18:22:18.573Z,100.00
2022-12-15T18:24:46.949Z,100.00
2022-12-15T18:27:22.606Z,100.00
2022-12-15T18:29:52.572Z,100.00
2022-12-15T18:32:22.182Z,100.00
2022-12-15T18:34:50.667Z,100.00
2022-12-15T18:37:20.763Z,100.00
2022-12-15T18:39:50.764Z,100.00
2022-12-15T18:42:23.457Z,100.00
2022-12-15T18:44:54.000Z,100.00
2022-12-15T18:47:25.180Z,100.00
2022-12-15T18:49:53.786Z,100.00
2022-12-15T18:52:23.767Z,100.00
2022-12-15T18:54:53.274Z,100.00
2022-12-15T18:57:29.197Z,100.00
2022-12-15T19:00:01.490Z,100.00
2022-12-15T19:02:29.985Z,100.00
2022-12-15T19:04:58.393Z,100.00
2022-12-15T19:07:26.756Z,100.00
2022-12-15T19:09:55.330Z,100.00
2022-12-15T19:12:23.692Z,100.00
2022-12-15T19:14:55.007Z,100.00
2022-12-15T19:17:43.352Z,100.00
2022-12-15T19:20:35.464Z,100.00
2022-12-15T19:23:03.763Z,100.00
2022-12-15T19:25:35.150Z,100.00
2022-12-15T19:28:03.555Z,100.00
2022-12-15T19:30:40.232Z,100.00
2022-12-15T19:33:12.213Z,100.00
2022-12-15T19:35:43.264Z,100.00
2022-12-15T19:38:22.030Z,100.00
2022-12-15T19:40:53.306Z,100.00
2022-12-15T19:43:22.274Z,100.00
2022-12-15T19:45:52.099Z,100.00
2022-12-15T19:48:24.383Z,100.00
2022-12-15T19:50:54.815Z,100.00
2022-12-15T19:53:25.885Z,100.00
2022-12-15T19:55:56.336Z,100.00
2022-12-15T19:58:28.832Z,100.00
2022-12-15T20:00:58.569Z,100.00
2022-12-15T20:03:31.468Z,100.00
2022-12-15T20:06:00.859Z,100.00
2022-12-15T20:08:31.217Z,100.00
2022-12-15T20:10:59.553Z,100.00
2022-12-15T20:13:27.859Z,100.00
2022-12-15T20:15:56.396Z,100.00
2022-12-15T20:18:25.714Z,100.00
2022-12-15T20:20:55.884Z,100.00
2022-12-15T20:23:26.962Z,100.00
2022-12-15T20:25:58.297Z,100.00
2022-12-15T20:28:28.831Z,100.00
2022-12-15T20:30:57.920Z,100.00
2022-12-15T20:33:26.731Z,100.00
2022-12-15T20:35:56.378Z,100.00
2022-12-15T20:38:30.640Z,100.00
2022-12-15T20:41:00.165Z,100.00
2022-12-15T20:43:31.471Z,100.00
2022-12-15T20:46:04.851Z,100.00
2022-12-15T20:48:34.851Z,100.00
2022-12-15T20:51:09.185Z,100.00
2022-12-15T20:53:39.095Z,100.00
2022-12-15T20:56:08.765Z,99.85
2022-12-15T20:58:39.964Z,99.87
2022-12-15T21:01:17.421Z,99.29
2022-12-15T21:03:46.014Z,98.68
2022-12-15T21:06:16.140Z,98.44
2022-12-15T21:08:44.502Z,97.93
2022-12-15T21:11:16.357Z,98.12
2022-12-15T21:13:44.807Z,97.36
2022-12-15T21:16:16.922Z,97.91
2022-12-15T21:21:37.716Z,97.24
2022-12-15T21:24:15.088Z,98.07
2022-12-15T21:26:43.532Z,100.00
2022-12-15T21:29:14.799Z,100.00
2022-12-15T21:31:43.135Z,100.00
2022-12-15T21:34:11.784Z,100.00
2022-12-15T21:36:43.634Z,100.00
2022-12-15T21:39:14.682Z,100.00
2022-12-15T21:41:44.706Z,100.00
2022-12-15T21:44:14.547Z,100.00
2022-12-15T21:46:42.979Z,100.00
2022-12-15T21:49:18.657Z,100.00
2022-12-15T21:51:54.887Z,100.00
2022-12-15T21:54:30.697Z,100.00
2022-12-15T21:56:59.816Z,100.00
2022-12-15T21:59:30.619Z,100.00
2022-12-15T22:01:59.593Z,100.00
2022-12-15T22:04:31.156Z,100.00
2022-12-15T22:07:00.828Z,100.00
2022-12-15T22:09:29.752Z,100.00
2022-12-15T22:11:58.350Z,99.78
2022-12-15T22:14:28.556Z,99.59
2022-12-15T22:16:57.261Z,98.55
2022-12-15T22:19:25.905Z,98.82
2022-12-15T22:21:54.119Z,98.72
2022-12-15T22:24:24.721Z,97.82
2022-12-15T22:26:53.046Z,98.13
2022-12-15T22:29:22.870Z,97.62
2022-12-15T22:31:51.936Z,97.04
2022-12-15T22:34:21.666Z,96.65
2022-12-15T22:36:50.579Z,96.70
2022-12-15T22:39:20.480Z,96.28
2022-12-15T22:41:51.250Z,96.54
2022-12-15T22:44:23.044Z,96.57
2022-12-15T22:46:52.525Z,96.27
2022-12-15T22:49:25.196Z,95.88
2022-12-15T22:51:54.966Z,96.54
2022-12-15T22:54:25.287Z,95.75
2022-12-15T22:56:59.795Z,95.96
2022-12-15T22:59:30.264Z,95.88
2022-12-15T23:01:58.636Z,95.97
2022-12-15T23:04:26.945Z,95.85
2022-12-15T23:06:55.200Z,95.97
2022-12-15T23:09:23.539Z,96.52
2022-12-15T23:11:50.825Z,96.54
2022-12-15T23:14:41.603Z,96.34
2022-12-15T23:17:09.174Z,96.27
2022-12-15T23:19:37.438Z,96.08
2022-12-15T23:22:06.451Z,95.97
2022-12-15T23:24:34.904Z,96.15
2022-12-15T23:27:03.093Z,96.27
2022-12-15T23:29:32.757Z,96.19
2022-12-15T23:32:01.141Z,96.17
2022-12-15T23:34:29.511Z,96.59
2022-12-15T23:36:57.704Z,95.72
2022-12-15T23:39:26.005Z,96.54
2022-12-15T23:41:54.270Z,96.08
2022-12-15T23:44:23.088Z,96.66
2022-12-15T23:46:52.968Z,96.28
2022-12-15T23:49:21.189Z,95.91
2022-12-15T23:51:49.599Z,96.41
2022-12-15T23:54:18.586Z,96.70
2022-12-15T23:56:46.734Z,96.21
2022-12-15T23:59:14.937Z,96.25
